Terminal Aerodrome Forecast
Issued by NWS Wilmington, OH

Current Version | Previous Version | Graphics & Text | Print | Product List | Glossary On
Versions: 1 2 3 4 5 6 7 8 9 10 11 12 13 14 15 16
149
FTUS41 KILN 220530
TAFILN
TAF
KILN 220530Z 2206/2306 14005KT P6SM SCT120 BKN250
     FM221500 18011KT P6SM FEW120 BKN250
     FM222300 15007KT P6SM SCT100 BKN250=

USA.gov is the U.S. government's official web portal to all federal, state and local government web resources and services.